• Join FlightAware (Why Join?)
  • Login
  • US Flag 
06:38AM EDT


 

Airport Tracker/Info


-or-


 

Live Flight TrackerFlight Track Log ✈ N30TL ✈ 18-Apr-2013 ✈ KCRP - KTME

Flight Track Log - Related Links

Times and Time Zones

All times are in EDT time to prevent confusion due to time zone crossing. See the N30TL flight status page for this flight to view local times or setup timezone preferences in your user account.

Time Position Orientation Groundspeed Altitude Reporting Facility
EDT Latitude Longitude Course Direction KTS MPH feet Rate Location/Type
08:32AM 27.7483 -97.4822 129° Southeast 208 239 1,500  Level Houston Center
08:32AM 27.7361 -97.4650 129° Southeast 211 243 2,700 3,420 Climbing Houston Center
08:33AM 27.7297 -97.4108 98° East 271 312 5,200 3,060 Climbing Houston Center
08:34AM 27.8058 -97.3642 28° Northeast 324 373 8,200 2,640 Climbing Houston Center
08:35AM 27.8919 -97.3372 15° North 322 371 10,700 1,980 Climbing Houston Center
08:36AM 27.9803 -97.3083 16° North 331 381 12,400 1,860 Climbing Houston Center
08:37AM 28.0997 -97.2711 15° North 364 419 14,600 2,040 Climbing Houston Center
08:38AM 28.1819 -97.1933 40° Northeast 380 437 16,700 2,040 Climbing Houston Center
08:39AM 28.2728 -97.1250 34° Northeast 390 449 18,800 1,980 Climbing Houston Center
08:40AM 28.3683 -97.0547 33° Northeast 407 468 20,900 1,740 Climbing Houston Center
08:41AM 28.4622 -96.9844 33° Northeast 406 467 22,400 1,020 Climbing Houston Center
08:42AM 28.5611 -96.9119 33° Northeast 421 484 23,000 240 Climbing Houston Center
08:43AM 28.6664 -96.8317 34° Northeast 450 518 23,000  Level Houston Center
08:44AM 28.7997 -96.7319 33° Northeast 477 549 23,000 -720 Level Houston Center
08:45AM 28.9072 -96.6511 33° Northeast 469 540 21,600 -1,980 Descending Houston Center
08:46AM 29.0075 -96.5767 33° Northeast 440 506 19,000 -2,580 Descending Houston Center
08:47AM 29.1064 -96.5022 33° Northeast 431 496 16,300 -2,520 Descending Houston Center
08:48AM 29.2006 -96.4294 34° Northeast 417 480 13,800 -2,700 Descending Houston Center
08:49AM 29.3117 -96.3456 33° Northeast 405 466 10,800 -2,280 Descending Houston Center
08:50AM 29.3900 -96.2872 33° Northeast 347 399 9,300 -1,680 Descending Houston Center
08:51AM 29.4333 -96.2536 34° Northeast 334 384 8,400 -1,320 Descending Houston Center
08:51AM 29.4714 -96.2242 34° Northeast 337 388 7,900 -420 Descending Houston Center
08:52AM 29.5081 -96.1947 35° Northeast 316 364 8,000  Climbing Houston Center
08:52AM 29.5453 -96.1667 33° Northeast 326 375 7,900  Descending Houston Center
08:53AM 29.5692 -96.1233 58° Northeast 309 356 8,000 -420 Climbing Houston Center
08:53AM 29.5867 -96.0856 62° Northeast 290 334 7,500 -1,620 Descending Houston Center
08:54AM 29.6289 -96.0611 27° Northeast 296 341 6,400 -2,340 Descending Houston Center
08:54AM 29.6778 -96.0500 11° North 295 339 5,100 -2,100 Descending Houston Center
08:55AM 29.7092 -96.0450 North 298 343 4,300 -1,980 Descending Houston Center
08:55AM 29.7606 -96.0472 358° North 300 345 3,100 -1,320 Descending Houston Center
08:56AM 29.7939 -96.0522 353° North 287 330 3,000 -300 Descending Houston Center
08:56AM 29.8392 -96.0572 355° North 290 334 2,800 -600 Descending Houston Center
08:57AM 29.8733 -96.0481 13° North 296 341 2,400 -900 Descending Houston Center
08:57AM 29.9158 -96.0306 20° North 293 337 1,900 -420 Descending Houston Center
08:58AM 29.9464 -96.0203 16° North 278 320 2,000  Climbing Houston Center
08:58AM 29.9858 -96.0050 19° North 275 316 1,900  Descending Houston Center
08:59AM 30.0056 -95.9775 50° Northeast 234 269 2,000 60 Climbing Houston Center
08:59AM 30.0092 -95.9469 82° East 237 273 2,000  Level Houston Center
09:00AM 30.0064 -95.9147 96° East 192 221 2,000  Level Houston Center
09:00AM 29.9797 -95.9025 158° South 182 209 2,000  Level Houston Center
09:01AM 29.9653 -95.9000 171° South 164 189 2,000  Level Houston Center
09:01AM 29.9372 -95.9011 182° South 159 183 2,000  Level Houston Center
09:02AM 29.9256 -95.9000 175° South 129 148 2,000 -240 Level Houston Center
09:03AM 29.9011 -95.9000 180° South 140 161 1,800 -300 Descending Houston Center
09:03AM 29.8897 -95.8992 176° South 97 112 1,700 -540 Descending Houston Center
09:04AM 29.8728 -95.9000 182° South 120 138 1,300 -600 Descending Houston Center
09:04AM 29.8625 -95.9000 180° South 102 117 1,100 -540 Descending Houston Center
09:05AM 29.8428 -95.9003 181° South 109 125 800 -420 Descending Houston Center